createdAt,value
2019-01-24T00:01:50.652Z,1001.49
2019-01-24T00:02:49.036Z,1001.46
2019-01-24T00:03:49.023Z,1001.48
2019-01-24T00:04:49.013Z,1001.48
2019-01-24T00:05:49.003Z,1001.49
2019-01-24T00:06:49.023Z,1001.52
2019-01-24T00:07:48.981Z,1001.53
2019-01-24T00:08:48.972Z,1001.54
2019-01-24T00:09:48.959Z,1001.54
2019-01-24T00:10:48.951Z,1001.56
2019-01-24T00:11:48.938Z,1001.57
2019-01-24T00:12:48.951Z,1001.59
2019-01-24T00:13:48.916Z,1001.60
2019-01-24T00:14:48.916Z,1001.63
2019-01-24T00:15:48.897Z,1001.68
2019-01-24T00:16:48.889Z,1001.58
2019-01-24T00:17:48.924Z,1001.66
2019-01-24T00:18:48.868Z,1001.65
2019-01-24T00:19:48.856Z,1001.69
2019-01-24T00:20:48.845Z,1001.68
2019-01-24T00:21:48.834Z,1001.70
2019-01-24T00:22:48.822Z,1001.73
2019-01-24T00:23:48.844Z,1001.72
2019-01-24T00:24:48.799Z,1001.71
2019-01-24T00:25:48.790Z,1001.75
2019-01-24T00:26:48.804Z,1001.81
2019-01-24T00:27:48.781Z,1001.77
2019-01-24T00:28:48.797Z,1001.75
2019-01-24T00:29:48.748Z,1001.78
2019-01-24T00:30:48.739Z,1001.84
2019-01-24T00:31:48.736Z,1001.81
2019-01-24T00:32:48.712Z,1001.81
2019-01-24T00:33:48.732Z,1001.77
2019-01-24T00:34:48.697Z,1001.77
2019-01-24T00:35:48.686Z,1001.84
2019-01-24T00:36:48.676Z,1001.83
2019-01-24T00:37:48.663Z,1001.83
2019-01-24T00:38:48.680Z,1001.85
2019-01-24T00:39:48.651Z,1001.87
2019-01-24T00:40:48.626Z,1001.86
2019-01-24T00:41:48.617Z,1001.85
2019-01-24T00:42:48.606Z,1001.81
2019-01-24T00:43:48.594Z,1001.91
2019-01-24T00:44:48.623Z,1001.85
2019-01-24T00:45:48.571Z,1001.92
2019-01-24T00:46:48.557Z,1001.90
2019-01-24T00:47:48.551Z,1001.84
2019-01-24T00:48:48.545Z,1001.94
2019-01-24T00:49:48.551Z,1001.90
2019-01-24T00:50:48.518Z,1001.94
2019-01-24T00:51:48.506Z,1001.92
2019-01-24T00:52:48.493Z,1001.92
2019-01-24T00:53:48.480Z,1001.86
2019-01-24T00:54:48.494Z,1001.88
2019-01-24T00:55:48.466Z,1001.94
2019-01-24T00:56:48.456Z,1001.91
2019-01-24T00:57:48.445Z,1001.90
2019-01-24T00:58:48.431Z,1001.94
2019-01-24T00:59:48.460Z,1001.93
2019-01-24T01:00:48.407Z,1001.97
2019-01-24T01:01:48.396Z,1001.94
2019-01-24T01:02:48.384Z,1001.91
2019-01-24T01:03:48.374Z,1001.93
2019-01-24T01:04:48.360Z,1001.96
2019-01-24T01:05:48.377Z,1002.01
2019-01-24T01:06:48.351Z,1002.01
2019-01-24T01:07:48.340Z,1002.03
2019-01-24T01:08:48.322Z,1001.98
2019-01-24T01:09:48.311Z,1002.06
2019-01-24T01:10:48.322Z,1001.99
2019-01-24T01:11:48.284Z,1002.04
2019-01-24T01:12:48.277Z,1002.05
2019-01-24T01:13:48.264Z,1002.03
2019-01-24T01:14:48.278Z,1002.13
2019-01-24T01:15:48.267Z,1002.12
2019-01-24T01:16:48.230Z,1002.17
2019-01-24T01:31:18.937Z,1002.45
2019-01-24T01:31:51.900Z,1002.41
2019-01-24T01:32:51.894Z,1002.41
2019-01-24T01:33:51.881Z,1002.42
2019-01-24T01:34:51.867Z,1002.38
2019-01-24T01:35:51.855Z,1002.43
2019-01-24T01:36:51.875Z,1002.45
2019-01-24T01:37:51.836Z,1002.42
2019-01-24T01:38:51.823Z,1002.44
2019-01-24T01:39:51.818Z,1002.41
2019-01-24T01:40:51.806Z,1002.47
2019-01-24T01:41:51.832Z,1002.39
2019-01-24T01:42:51.785Z,1002.47
2019-01-24T01:43:51.831Z,1002.47
2019-01-24T01:44:51.767Z,1002.45
2019-01-24T01:45:51.752Z,1002.49
2019-01-24T01:46:51.747Z,1002.57
2019-01-24T01:47:51.758Z,1002.50
2019-01-24T01:48:51.726Z,1002.51
2019-01-24T01:49:51.711Z,1002.50
2019-01-24T01:50:51.706Z,1002.51
2019-01-24T01:51:51.693Z,1002.60
2019-01-24T01:52:51.993Z,1002.60
2019-01-24T01:53:51.670Z,1002.60
2019-01-24T01:54:51.653Z,1002.56
2019-01-24T01:55:51.647Z,1002.56
2019-01-24T01:56:51.637Z,1002.63
2019-01-24T01:57:51.647Z,1002.65
2019-01-24T01:58:51.609Z,1002.58
2019-01-24T01:59:51.599Z,1002.65
2019-01-24T02:00:51.630Z,1002.68
2019-01-24T02:01:51.577Z,1002.66
2019-01-24T02:02:51.594Z,1002.68
2019-01-24T02:03:51.554Z,1002.66
2019-01-24T02:04:51.545Z,1002.67
2019-01-24T02:05:51.531Z,1002.60
2019-01-24T02:06:51.524Z,1002.76
2019-01-24T02:07:51.535Z,1002.65
2019-01-24T02:08:51.496Z,1002.68
2019-01-24T02:09:51.486Z,1002.69
2019-01-24T02:10:51.478Z,1002.64
2019-01-24T02:11:51.467Z,1002.67
2019-01-24T02:12:51.991Z,1002.76
2019-01-24T02:13:51.444Z,1002.66
2019-01-24T02:14:51.435Z,1002.72
2019-01-24T02:15:51.425Z,1002.70
2019-01-24T02:16:51.411Z,1002.75
2019-01-24T02:17:51.428Z,1002.79
2019-01-24T02:18:51.391Z,1002.80
2019-01-24T02:19:51.383Z,1002.81
2019-01-24T02:20:51.367Z,1002.70
2019-01-24T02:21:51.357Z,1002.78
2019-01-24T02:22:51.369Z,1002.76
2019-01-24T02:23:51.342Z,1002.83
2019-01-24T02:24:51.326Z,1002.83
2019-01-24T02:25:51.324Z,1002.80
2019-01-24T02:26:51.302Z,1002.80
2019-01-24T02:27:51.310Z,1002.84
2019-01-24T02:28:51.279Z,1002.84
2019-01-24T02:29:51.265Z,1002.85
2019-01-24T02:30:51.267Z,1002.88
2019-01-24T02:31:51.247Z,1002.86
2019-01-24T02:32:51.999Z,1002.88
2019-01-24T02:33:51.225Z,1002.88
2019-01-24T02:34:51.218Z,1002.86
2019-01-24T03:23:26.512Z,1003.10
2019-01-24T03:24:26.454Z,1003.02
2019-01-24T03:25:26.464Z,1003.02
2019-01-24T03:26:26.428Z,1003.09
2019-01-24T03:27:26.414Z,1003.04
2019-01-24T03:28:26.403Z,1003.08
2019-01-24T03:29:26.391Z,1003.08
2019-01-24T03:30:26.402Z,1003.06
2019-01-24T03:31:26.371Z,1002.98
2019-01-24T03:32:26.360Z,1003.01
2019-01-24T03:33:26.348Z,1003.05
2019-01-24T03:34:26.338Z,1003.03
2019-01-24T03:35:27.223Z,1002.99
2019-01-24T03:36:26.317Z,1003.07
2019-01-24T03:37:26.304Z,1003.00
2019-01-24T03:38:26.295Z,1003.03
2019-01-24T03:39:26.285Z,1003.03
2019-01-24T03:40:26.306Z,1003.07
2019-01-24T03:41:26.263Z,1003.05
2019-01-24T03:42:26.252Z,1003.04
2019-01-24T03:43:26.246Z,1003.04
2019-01-24T03:44:26.229Z,1003.01
2019-01-24T03:45:26.232Z,1003.03
2019-01-24T03:46:26.231Z,1003.04
2019-01-24T03:47:26.200Z,1003.00
2019-01-24T03:48:26.186Z,1003.03
2019-01-24T03:49:26.179Z,1003.04
2019-01-24T03:50:26.168Z,1003.03
2019-01-24T03:51:26.183Z,1003.04
2019-01-24T03:52:26.143Z,1003.09
2019-01-24T03:53:26.134Z,1003.10
2019-01-24T03:54:26.146Z,1003.14
2019-01-24T03:55:26.114Z,1003.11
2019-01-24T03:56:26.101Z,1003.18
2019-01-24T03:57:27.725Z,1003.16
2019-01-24T03:58:26.086Z,1003.19
2019-01-24T03:59:26.073Z,1003.15
2019-01-24T04:00:26.058Z,1003.18
2019-01-24T04:01:26.046Z,1003.20
2019-01-24T04:02:26.059Z,1003.19
2019-01-24T04:03:26.026Z,1003.19
2019-01-24T04:04:26.019Z,1003.14
2019-01-24T04:05:26.008Z,1003.23
2019-01-24T04:06:25.993Z,1003.19
2019-01-24T04:07:25.984Z,1003.18
2019-01-24T04:08:25.994Z,1003.18
2019-01-24T04:09:25.961Z,1003.19
2019-01-24T04:10:25.959Z,1003.22
2019-01-24T04:11:25.944Z,1003.13
2019-01-24T04:12:25.938Z,1003.20
2019-01-24T04:13:25.949Z,1003.17
2019-01-24T04:14:25.914Z,1003.17
2019-01-24T04:15:25.903Z,1003.14
2019-01-24T04:16:25.902Z,1003.18
2019-01-24T04:17:25.880Z,1003.26
2019-01-24T04:18:25.889Z,1003.31
2019-01-24T04:19:25.856Z,1003.29
2019-01-24T04:20:25.846Z,1003.29
2019-01-24T04:21:25.836Z,1003.35
2019-01-24T04:22:25.829Z,1003.33
2019-01-24T04:23:26.235Z,1003.35
2019-01-24T04:24:25.802Z,1003.30
2019-01-24T04:25:25.790Z,1003.32
2019-01-24T04:34:46.276Z,1003.42
2019-01-24T04:35:19.893Z,1003.40
2019-01-24T04:36:19.231Z,1003.44
2019-01-24T04:37:19.219Z,1003.45
2019-01-24T04:38:19.232Z,1003.51
2019-01-24T04:39:19.201Z,1003.48
2019-01-24T04:40:19.185Z,1003.49
2019-01-24T04:41:19.176Z,1003.48
2019-01-24T04:42:19.165Z,1003.55
2019-01-24T04:43:19.883Z,1003.51
2019-01-24T04:44:19.148Z,1003.57
2019-01-24T04:45:19.139Z,1003.60
2019-01-24T04:46:19.120Z,1003.57
2019-01-24T04:47:19.114Z,1003.59
2019-01-24T04:48:19.120Z,1003.59
2019-01-24T04:49:19.092Z,1003.57
2019-01-24T04:50:19.077Z,1003.65
2019-01-24T04:51:19.078Z,1003.64
2019-01-24T04:52:19.058Z,1003.58
2019-01-24T04:53:19.882Z,1003.68
2019-01-24T04:54:19.039Z,1003.61
2019-01-24T04:55:19.023Z,1003.58
2019-01-24T04:56:19.015Z,1003.63
2019-01-24T04:57:19.015Z,1003.60
2019-01-24T04:58:19.036Z,1003.73
2019-01-24T04:59:18.991Z,1003.68
2019-01-24T05:00:18.974Z,1003.59
2019-01-24T05:01:18.975Z,1003.74
2019-01-24T05:02:18.955Z,1003.74
2019-01-24T05:03:18.939Z,1003.73
2019-01-24T05:04:19.888Z,1003.69
2019-01-24T05:05:18.918Z,1003.75
2019-01-24T05:06:18.909Z,1003.77
2019-01-24T05:07:18.902Z,1003.77
2019-01-24T05:08:18.908Z,1003.72
2019-01-24T05:30:19.970Z,1004.11
2019-01-24T05:30:52.912Z,1004.06
2019-01-24T05:31:52.894Z,1004.10
2019-01-24T05:32:52.900Z,1004.13
2019-01-24T05:33:52.874Z,1004.05
2019-01-24T05:34:52.882Z,1004.09
2019-01-24T05:35:52.853Z,1004.08
2019-01-24T05:36:52.846Z,1004.14
2019-01-24T05:37:52.834Z,1004.12
2019-01-24T05:38:52.821Z,1004.10
2019-01-24T05:39:52.833Z,1004.16
2019-01-24T05:40:52.805Z,1004.11
2019-01-24T05:41:52.789Z,1004.12
2019-01-24T05:42:52.777Z,1004.17
2019-01-24T05:43:53.633Z,1004.15
2019-01-24T05:44:52.784Z,1004.17
2019-01-24T05:45:52.747Z,1004.22
2019-01-24T05:46:52.741Z,1004.20
2019-01-24T05:47:52.734Z,1004.21
2019-01-24T05:48:52.727Z,1004.24
2019-01-24T05:49:52.707Z,1004.27
2019-01-24T05:50:52.715Z,1004.28
2019-01-24T05:51:52.695Z,1004.26
2019-01-24T05:52:52.685Z,1004.26
2019-01-24T05:53:52.661Z,1004.27
2019-01-24T05:54:52.654Z,1004.29
2019-01-24T05:55:52.670Z,1004.38
2019-01-24T05:56:52.633Z,1004.35
2019-01-24T05:57:52.622Z,1004.29
2019-01-24T05:58:52.610Z,1004.30
2019-01-24T05:59:52.598Z,1004.31
2019-01-24T06:00:52.613Z,1004.29
2019-01-24T06:01:52.593Z,1004.28
2019-01-24T06:02:52.571Z,1004.25
2019-01-24T06:03:52.565Z,1004.28
2019-01-24T06:04:52.562Z,1004.34
2019-01-24T06:37:37.113Z,1004.45
2019-01-24T06:38:37.097Z,1004.45
2019-01-24T06:39:37.074Z,1004.52
2019-01-24T06:41:36.045Z,1004.52
2019-01-24T06:41:37.098Z,1004.58
2019-01-24T06:42:37.042Z,1004.61
2019-01-24T06:43:37.060Z,1004.60
2019-01-24T06:44:37.014Z,1004.53
2019-01-24T06:45:37.007Z,1004.54
2019-01-24T06:46:36.989Z,1004.59
2019-01-24T06:47:36.979Z,1004.53
2019-01-24T06:48:36.991Z,1004.55
2019-01-24T06:49:36.960Z,1004.62
2019-01-24T06:50:36.952Z,1004.67
2019-01-24T06:51:36.938Z,1004.66
2019-01-24T06:52:36.932Z,1004.65
2019-01-24T06:53:36.950Z,1004.69
2019-01-24T06:54:36.922Z,1004.61
2019-01-24T06:55:36.903Z,1004.68
2019-01-24T06:56:36.895Z,1004.73
2019-01-24T06:57:36.875Z,1004.74
2019-01-24T06:58:36.886Z,1004.76
2019-01-24T06:59:36.854Z,1004.78
2019-01-24T07:00:36.846Z,1004.76
2019-01-24T07:01:36.828Z,1004.80
2019-01-24T07:02:36.819Z,1004.80
2019-01-24T07:03:36.835Z,1004.85
2019-01-24T07:04:36.804Z,1004.81
2019-01-24T07:05:36.797Z,1004.86
2019-01-24T07:06:36.791Z,1004.87
2019-01-24T07:07:37.975Z,1004.86
2019-01-24T07:08:36.808Z,1004.89
2019-01-24T07:09:36.754Z,1004.88
2019-01-24T07:10:36.745Z,1004.88
2019-01-24T07:11:36.736Z,1004.96
2019-01-24T07:12:36.725Z,1004.94
2019-01-24T07:13:36.724Z,1005.03
2019-01-24T07:14:37.032Z,1005.01
2019-01-24T07:15:36.686Z,1004.95
2019-01-24T07:16:36.685Z,1004.96
2019-01-24T07:17:36.670Z,1004.94
2019-01-24T07:18:36.687Z,1004.96
2019-01-24T07:19:36.670Z,1004.95
2019-01-24T07:20:36.659Z,1004.96
2019-01-24T07:21:36.637Z,1004.97
2019-01-24T07:22:36.613Z,1004.98
2019-01-24T07:23:36.655Z,1004.93
2019-01-24T07:24:36.595Z,1004.94
2019-01-24T07:25:36.612Z,1005.00
2019-01-24T07:26:36.576Z,1005.09
2019-01-24T07:27:36.563Z,1005.03
2019-01-24T07:28:36.548Z,1005.10
2019-01-24T07:29:36.538Z,1005.07
2019-01-24T07:30:36.552Z,1005.08
2019-01-24T07:31:36.517Z,1005.07
2019-01-24T07:32:36.508Z,1005.10
2019-01-24T07:33:36.509Z,1005.13
2019-01-24T07:34:36.486Z,1005.12
2019-01-24T07:35:36.501Z,1005.18
2019-01-24T07:36:36.492Z,1005.23
2019-01-24T07:37:36.447Z,1005.18
2019-01-24T07:38:36.442Z,1005.23
2019-01-24T07:39:36.430Z,1005.19
2019-01-24T07:40:36.423Z,1005.23
2019-01-24T07:41:36.433Z,1005.22
2019-01-24T07:42:36.439Z,1005.26
2019-01-24T07:43:36.574Z,1005.30
2019-01-24T07:44:36.717Z,1005.32
2019-01-24T07:45:36.659Z,1005.27
2019-01-24T07:46:36.420Z,1005.29
2019-01-24T13:14:16.855Z,1006.84
2019-01-24T13:14:49.767Z,1006.82
2019-01-24T13:15:49.755Z,1006.83
2019-01-24T13:16:49.748Z,1006.87
2019-01-24T13:17:49.728Z,1006.82
2019-01-24T13:18:49.738Z,1006.92
2019-01-24T13:19:49.705Z,1006.85
2019-01-24T13:20:49.695Z,1006.81
2019-01-24T13:21:49.683Z,1006.79
2019-01-24T13:22:49.675Z,1006.75
2019-01-24T13:23:49.665Z,1006.70
2019-01-24T13:24:49.679Z,1006.71
2019-01-24T13:25:49.649Z,1006.64
2019-01-24T13:26:49.642Z,1006.71
2019-01-24T13:27:50.785Z,1006.69
2019-01-24T13:28:49.613Z,1006.64
2019-01-24T13:29:49.628Z,1006.65
2019-01-24T13:30:49.625Z,1006.70
2019-01-24T13:31:49.587Z,1006.61
2019-01-24T13:32:49.593Z,1006.66
2019-01-24T13:33:49.732Z,1006.56
2019-01-24T13:47:23.406Z,1006.70
2019-01-24T13:47:56.365Z,1006.74
2019-01-24T13:48:56.343Z,1006.78
2019-01-24T13:49:56.376Z,1006.80
2019-01-24T13:50:56.348Z,1006.75
2019-01-24T13:51:56.325Z,1006.86
2019-01-24T13:52:56.304Z,1006.84
2019-01-24T13:53:56.299Z,1006.90
2019-01-24T13:54:56.283Z,1006.89
2019-01-24T13:55:56.298Z,1006.89
2019-01-24T13:56:56.305Z,1006.85
2019-01-24T13:57:56.251Z,1006.84
2019-01-24T13:58:56.248Z,1006.84
2019-01-24T13:59:56.248Z,1006.80
2019-01-24T14:00:56.230Z,1006.84
2019-01-24T14:01:56.260Z,1006.82
2019-01-24T14:02:56.196Z,1006.81
2019-01-24T14:03:56.183Z,1006.80
2019-01-24T14:04:56.210Z,1006.81
2019-01-24T14:05:56.183Z,1006.91
2019-01-24T14:06:56.182Z,1006.94
2019-01-24T14:07:56.147Z,1006.91
2019-01-24T14:08:56.139Z,1006.92
2019-01-24T14:09:56.126Z,1006.93
2019-01-24T14:10:56.113Z,1006.93
2019-01-24T14:11:56.127Z,1006.92
2019-01-24T14:12:56.093Z,1007.02
2019-01-24T14:13:56.090Z,1006.94
2019-01-24T14:14:56.065Z,1006.99
2019-01-24T16:21:35.586Z,1008.02
2019-01-24T16:22:35.493Z,1007.95
2019-01-24T16:23:35.554Z,1007.98
2019-01-24T16:24:35.446Z,1008.07
2019-01-24T16:25:35.414Z,1008.04
2019-01-24T16:27:41.455Z,1008.15
2019-01-24T16:36:22.339Z,1008.16
2019-01-24T16:36:55.321Z,1008.10
2019-01-24T16:37:55.301Z,1008.14
2019-01-24T16:38:55.293Z,1008.18
2019-01-24T16:39:55.316Z,1008.21
2019-01-24T16:40:55.340Z,1008.25
2019-01-24T16:41:55.265Z,1008.21
2019-01-24T16:42:55.252Z,1008.19
2019-01-24T16:43:55.244Z,1008.20
2019-01-24T16:44:55.240Z,1008.23
2019-01-24T16:45:55.297Z,1008.23
2019-01-24T16:46:55.314Z,1008.31
2019-01-24T16:47:55.206Z,1008.26
2019-01-24T16:48:55.189Z,1008.26
2019-01-24T16:49:55.173Z,1008.25
2019-01-24T16:50:55.185Z,1008.26
2019-01-24T16:51:55.149Z,1008.31
2019-01-24T16:52:55.137Z,1008.25
2019-01-24T16:53:55.125Z,1008.27
2019-01-24T16:54:55.129Z,1008.30
2019-01-24T16:55:55.135Z,1008.36
2019-01-24T16:56:55.091Z,1008.31
2019-01-24T16:57:55.086Z,1008.24
2019-01-24T16:58:55.075Z,1008.25
2019-01-24T16:59:55.059Z,1008.30
2019-01-24T17:00:55.052Z,1008.34
2019-01-24T17:01:55.061Z,1008.37
2019-01-24T17:02:55.034Z,1008.46
2019-01-24T17:03:55.022Z,1008.38
2019-01-24T17:04:55.006Z,1008.40
2019-01-24T17:05:55.000Z,1008.39
2019-01-24T17:06:55.015Z,1008.33
2019-01-24T17:07:54.974Z,1008.36
2019-01-24T17:08:54.966Z,1008.31
2019-01-24T17:09:54.960Z,1008.35
2019-01-24T17:10:54.951Z,1008.26
2019-01-24T17:11:54.957Z,1008.34
2019-01-24T17:12:54.926Z,1008.26
2019-01-24T17:13:54.921Z,1008.29
2019-01-24T17:14:54.902Z,1008.31
2019-01-24T17:15:54.893Z,1008.28
2019-01-24T17:16:54.909Z,1008.34
2019-01-24T17:17:54.869Z,1008.36
2019-01-24T17:18:54.862Z,1008.32
2019-01-24T17:19:54.870Z,1008.28
2019-01-24T17:20:54.838Z,1008.31
2019-01-24T17:21:54.825Z,1008.32
2019-01-24T17:22:54.838Z,1008.37
2019-01-24T17:23:54.806Z,1008.44
2019-01-24T17:24:54.798Z,1008.42
2019-01-24T17:25:54.781Z,1008.36
2019-01-24T17:26:54.771Z,1008.39
2019-01-24T17:27:54.861Z,1008.36
2019-01-24T17:28:54.840Z,1008.33
2019-01-24T17:29:54.798Z,1008.34
2019-01-24T17:30:54.817Z,1008.33
2019-01-24T17:31:54.727Z,1008.38
2019-01-24T17:32:54.732Z,1008.38
2019-01-24T17:33:54.696Z,1008.41
2019-01-24T17:35:11.254Z,1008.38
2019-01-24T17:36:03.765Z,1008.35
2019-01-24T17:36:54.674Z,1008.40
2019-01-24T17:37:54.679Z,1008.37
2019-01-24T17:38:54.642Z,1008.33
2019-01-24T17:40:06.289Z,1008.37
2019-01-24T17:40:55.292Z,1008.31
2019-01-24T17:41:54.609Z,1008.32
2019-01-24T17:42:54.615Z,1008.30
2019-01-24T17:43:54.583Z,1008.32
2019-01-24T17:44:54.570Z,1008.30
2019-01-24T17:45:54.565Z,1008.31
2019-01-24T17:46:54.549Z,1008.41
2019-01-24T17:47:54.569Z,1008.37
2019-01-24T17:48:54.534Z,1008.31
2019-01-24T17:49:54.523Z,1008.38
2019-01-24T17:50:54.513Z,1008.33
2019-01-24T17:51:54.497Z,1008.28
2019-01-24T17:52:54.486Z,1008.27
2019-01-24T17:53:54.497Z,1008.33
2019-01-24T17:54:54.465Z,1008.37
2019-01-24T17:55:54.456Z,1008.35
2019-01-24T17:56:54.448Z,1008.36
2019-01-24T17:57:54.436Z,1008.44
2019-01-24T17:58:54.453Z,1008.42
2019-01-24T17:59:54.457Z,1008.42
2019-01-24T18:00:54.413Z,1008.39
2019-01-24T18:01:54.404Z,1008.34
2019-01-24T18:02:54.383Z,1008.45
2019-01-24T18:03:54.395Z,1008.38
2019-01-24T18:04:54.365Z,1008.43
2019-01-24T18:06:39.334Z,1008.39
2019-01-24T18:06:54.348Z,1008.38
2019-01-24T18:08:07.406Z,1008.46
2019-01-24T18:09:38.933Z,1008.51
2019-01-24T18:10:34.957Z,1008.47
2019-01-24T18:10:54.296Z,1008.47
2019-01-24T18:11:54.280Z,1008.48
2019-01-24T18:12:54.274Z,1008.53
2019-01-24T18:13:54.288Z,1008.45
2019-01-24T18:15:03.468Z,1008.52
2019-01-24T19:25:30.740Z,1009.33
2019-01-24T19:26:03.683Z,1009.39
2019-01-24T19:27:03.675Z,1009.41
2019-01-24T19:28:03.678Z,1009.44
2019-01-24T19:29:03.680Z,1009.40
2019-01-24T19:30:03.638Z,1009.46
2019-01-24T19:31:03.631Z,1009.38
2019-01-24T19:32:03.619Z,1009.37
2019-01-24T19:33:03.635Z,1009.30
2019-01-24T19:34:03.649Z,1009.30
2019-01-24T19:57:17.873Z,1009.47
2019-01-24T19:57:50.842Z,1009.46
2019-01-24T19:58:50.857Z,1009.49
2019-01-24T19:59:50.818Z,1009.48
2019-01-24T20:00:50.807Z,1009.52
2019-01-24T20:01:50.800Z,1009.49
2019-01-24T20:02:50.792Z,1009.52
2019-01-24T20:03:50.806Z,1009.49
2019-01-24T20:04:50.770Z,1009.52
2019-01-24T20:05:50.761Z,1009.52
2019-01-24T20:06:50.746Z,1009.52
2019-01-24T20:07:50.742Z,1009.53
2019-01-24T20:08:50.742Z,1009.53
2019-01-24T20:09:50.713Z,1009.53
2019-01-24T20:10:50.700Z,1009.46
2019-01-24T20:11:50.694Z,1009.54
2019-01-24T20:12:50.682Z,1009.56
2019-01-24T20:31:41.639Z,1009.62
2019-01-24T20:32:14.587Z,1009.55
2019-01-24T20:33:14.566Z,1009.56
2019-01-24T20:34:14.559Z,1009.58
2019-01-24T21:19:59.884Z,1009.62
2019-01-24T21:20:32.854Z,1009.59
2019-01-24T21:21:32.830Z,1009.59
2019-01-24T21:22:32.866Z,1009.60
2019-01-24T21:23:32.807Z,1009.64
2019-01-24T21:24:32.795Z,1009.61
2019-01-24T21:25:32.788Z,1009.64
2019-01-24T21:26:32.776Z,1009.59
2019-01-24T21:27:32.767Z,1009.65
2019-01-24T21:28:32.779Z,1009.60
2019-01-24T21:29:32.743Z,1009.56
2019-01-24T21:30:32.735Z,1009.57
2019-01-24T21:31:32.723Z,1009.52
2019-01-24T21:32:32.715Z,1009.55
2019-01-24T21:33:32.726Z,1009.56
2019-01-24T21:34:33.439Z,1009.55
2019-01-24T21:35:32.686Z,1009.55
2019-01-24T21:36:32.673Z,1009.59
2019-01-24T21:37:32.662Z,1009.57
2019-01-24T21:38:32.674Z,1009.57
2019-01-24T21:39:32.640Z,1009.51
2019-01-24T21:40:32.637Z,1009.64
2019-01-24T21:41:32.620Z,1009.61
2019-01-24T21:42:33.420Z,1009.62
2019-01-24T21:43:32.603Z,1009.68
2019-01-24T21:44:32.597Z,1009.65
2019-01-24T21:45:32.579Z,1009.67
2019-01-24T21:46:32.594Z,1009.66
2019-01-24T21:47:32.586Z,1009.65
2019-01-24T21:48:32.543Z,1009.66
2019-01-24T21:49:32.536Z,1009.54
2019-01-24T21:50:32.523Z,1009.64
2019-01-24T21:51:32.518Z,1009.57
2019-01-24T21:52:32.502Z,1009.71
2019-01-24T21:53:32.514Z,1009.73
2019-01-24T21:54:32.479Z,1009.65
2019-01-24T21:55:32.468Z,1009.71
2019-01-24T21:56:32.460Z,1009.60
2019-01-24T21:57:32.449Z,1009.70
2019-01-24T21:58:32.461Z,1009.56
2019-01-24T21:59:32.425Z,1009.55
2019-01-24T22:00:32.415Z,1009.55
2019-01-24T22:01:32.402Z,1009.54
2019-01-24T22:02:32.394Z,1009.70
2019-01-24T22:03:32.405Z,1009.68
2019-01-24T22:04:32.387Z,1009.72
2019-01-24T22:05:32.441Z,1009.72
2019-01-24T22:06:32.347Z,1009.67
2019-01-24T22:07:32.338Z,1009.72
2019-01-24T22:08:32.373Z,1009.76
2019-01-24T22:09:32.317Z,1009.70
2019-01-24T22:10:32.307Z,1009.70
2019-01-24T22:11:32.292Z,1009.64
2019-01-24T23:08:34.947Z,1010.08
2019-01-24T23:09:07.903Z,1010.06
2019-01-24T23:10:07.890Z,1009.90
2019-01-24T23:11:07.909Z,1009.96
2019-01-24T23:12:07.868Z,1009.93
2019-01-24T23:13:07.857Z,1009.92
2019-01-24T23:14:07.846Z,1009.95
2019-01-24T23:15:07.836Z,1009.99
2019-01-24T23:16:07.824Z,1009.96
2019-01-24T23:17:07.841Z,1010.00
2019-01-24T23:18:07.813Z,1009.90
2019-01-24T23:19:07.794Z,1009.86
2019-01-24T23:20:07.780Z,1009.87
2019-01-24T23:21:07.769Z,1009.90
2019-01-24T23:22:07.785Z,1009.90
2019-01-24T23:23:07.753Z,1009.90
2019-01-24T23:24:07.739Z,1009.91
2019-01-24T23:25:07.731Z,1009.99
2019-01-24T23:26:07.720Z,1009.95
2019-01-24T23:27:08.150Z,1009.93
2019-01-24T23:28:07.698Z,1009.91
2019-01-24T23:29:07.686Z,1009.93
2019-01-24T23:30:07.672Z,1009.97
2019-01-24T23:31:07.664Z,1009.95
2019-01-24T23:32:07.676Z,1009.89
2019-01-24T23:33:07.647Z,1009.98
2019-01-24T23:34:07.639Z,1010.00
2019-01-24T23:35:07.623Z,1009.95
2019-01-24T23:36:07.663Z,1009.96
2019-01-24T23:37:07.650Z,1009.97
2019-01-24T23:38:07.591Z,1009.97
2019-01-24T23:39:07.581Z,1009.99
2019-01-24T23:40:07.575Z,1009.96
2019-01-24T23:41:07.561Z,1009.98
2019-01-24T23:42:07.553Z,1009.98
2019-01-24T23:43:07.601Z,1009.89
2019-01-24T23:44:07.526Z,1009.94
2019-01-24T23:45:07.519Z,1009.95
2019-01-24T23:46:07.504Z,1009.97
2019-01-24T23:47:07.493Z,1009.89
2019-01-24T23:48:07.504Z,1009.90
2019-01-24T23:49:07.474Z,1009.89
2019-01-24T23:50:07.464Z,1009.89
2019-01-24T23:51:07.454Z,1009.91
2019-01-24T23:52:07.438Z,1009.99
2019-01-24T23:53:07.448Z,1010.00
2019-01-24T23:54:07.416Z,1010.03
2019-01-24T23:55:07.413Z,1009.96
2019-01-24T23:56:07.396Z,1010.02
2019-01-24T23:57:07.385Z,1010.10
2019-01-24T23:58:08.157Z,1010.09
2019-01-24T23:59:07.364Z,1010.04
